sensor_id;sensor_type;location;lat;lon;timestamp;pressure;altitude;pressure_sealevel;temperature;humidity
44044;BME280;29709;52.396;16.796;2022-10-13T00:00:56;102578.41;;;8.34;71.88
44044;BME280;29709;52.396;16.796;2022-10-13T00:03:59;102576.71;;;8.32;72.42
44044;BME280;29709;52.396;16.796;2022-10-13T00:07:02;102575.30;;;8.26;72.34
44044;BME280;29709;52.396;16.796;2022-10-13T00:10:11;102569.14;;;8.23;72.73
44044;BME280;29709;52.396;16.796;2022-10-13T00:13:15;102577.16;;;8.26;71.81
44044;BME280;29709;52.396;16.796;2022-10-13T00:16:46;102564.02;;;8.18;72.09
44044;BME280;29709;52.396;16.796;2022-10-13T00:19:49;102557.09;;;8.13;72.65
44044;BME280;29709;52.396;16.796;2022-10-13T00:22:52;102557.21;;;8.11;72.55
44044;BME280;29709;52.396;16.796;2022-10-13T00:25:55;102548.57;;;8.04;72.76
44044;BME280;29709;52.396;16.796;2022-10-13T00:28:58;102547.90;;;8.01;72.48
44044;BME280;29709;52.396;16.796;2022-10-13T00:32:01;102545.80;;;7.92;72.82
44044;BME280;29709;52.396;16.796;2022-10-13T00:35:04;102546.16;;;7.87;73.14
44044;BME280;29709;52.396;16.796;2022-10-13T00:38:07;102552.95;;;7.81;73.39
44044;BME280;29709;52.396;16.796;2022-10-13T00:41:11;102556.97;;;7.76;74.28
44044;BME280;29709;52.396;16.796;2022-10-13T00:48:00;102562.13;;;7.80;74.11
44044;BME280;29709;52.396;16.796;2022-10-13T00:51:03;102561.81;;;7.85;73.57
44044;BME280;29709;52.396;16.796;2022-10-13T00:54:15;102552.15;;;7.79;74.11
44044;BME280;29709;52.396;16.796;2022-10-13T00:57:19;102551.73;;;7.86;73.91
44044;BME280;29709;52.396;16.796;2022-10-13T01:00:22;102545.73;;;7.93;72.88
44044;BME280;29709;52.396;16.796;2022-10-13T01:03:26;102546.72;;;7.92;73.35
44044;BME280;29709;52.396;16.796;2022-10-13T01:06:29;102554.81;;;7.94;73.17
44044;BME280;29709;52.396;16.796;2022-10-13T01:09:32;102542.30;;;7.90;72.80
44044;BME280;29709;52.396;16.796;2022-10-13T01:30:03;102527.50;;;7.67;72.44
44044;BME280;29709;52.396;16.796;2022-10-13T01:39:50;102515.95;;;7.36;74.48
44044;BME280;29709;52.396;16.796;2022-10-13T01:49:31;102511.15;;;7.40;74.07
44044;BME280;29709;52.396;16.796;2022-10-13T01:52:37;102509.85;;;7.45;73.81
44044;BME280;29709;52.396;16.796;2022-10-13T01:56:06;102498.03;;;7.45;73.20
44044;BME280;29709;52.396;16.796;2022-10-13T01:59:11;102503.73;;;7.42;73.48
44044;BME280;29709;52.396;16.796;2022-10-13T02:02:23;102494.55;;;7.43;73.19
44044;BME280;29709;52.396;16.796;2022-10-13T02:12:06;102473.70;;;7.28;73.48
44044;BME280;29709;52.396;16.796;2022-10-13T02:15:16;102468.79;;;7.20;73.67
44044;BME280;29709;52.396;16.796;2022-10-13T02:18:26;102471.94;;;7.14;74.16
44044;BME280;29709;52.396;16.796;2022-10-13T02:21:31;102468.54;;;7.10;73.58
44044;BME280;29709;52.396;16.796;2022-10-13T02:25:00;102471.68;;;7.04;73.89
44044;BME280;29709;52.396;16.796;2022-10-13T02:28:04;102468.30;;;7.01;75.15
44044;BME280;29709;52.396;16.796;2022-10-13T02:31:08;102469.83;;;7.05;74.83
44044;BME280;29709;52.396;16.796;2022-10-13T02:34:12;102474.13;;;7.09;74.38
44044;BME280;29709;52.396;16.796;2022-10-13T02:37:16;102481.02;;;7.14;74.70
44044;BME280;29709;52.396;16.796;2022-10-13T02:40:19;102474.78;;;7.12;74.37
44044;BME280;29709;52.396;16.796;2022-10-13T02:43:22;102479.26;;;7.13;74.46
44044;BME280;29709;52.396;16.796;2022-10-13T02:46:27;102485.20;;;7.20;74.04
44044;BME280;29709;52.396;16.796;2022-10-13T02:49:30;102489.47;;;7.24;73.75
44044;BME280;29709;52.396;16.796;2022-10-13T02:52:33;102483.89;;;7.26;73.54
44044;BME280;29709;52.396;16.796;2022-10-13T02:56:02;102482.66;;;7.17;73.28
44044;BME280;29709;52.396;16.796;2022-10-13T02:59:05;102475.06;;;7.08;73.36
44044;BME280;29709;52.396;16.796;2022-10-13T03:02:11;102466.45;;;7.01;74.17
44044;BME280;29709;52.396;16.796;2022-10-13T03:05:14;102467.42;;;7.00;74.09
44044;BME280;29709;52.396;16.796;2022-10-13T03:08:16;102471.03;;;7.01;73.48
44044;BME280;29709;52.396;16.796;2022-10-13T03:11:20;102469.47;;;6.97;73.51
44044;BME280;29709;52.396;16.796;2022-10-13T03:14:23;102475.73;;;6.99;74.51
44044;BME280;29709;52.396;16.796;2022-10-13T03:17:26;102468.41;;;6.99;74.60
44044;BME280;29709;52.396;16.796;2022-10-13T03:20:30;102472.41;;;6.93;74.55
44044;BME280;29709;52.396;16.796;2022-10-13T03:23:33;102466.95;;;6.93;74.35
44044;BME280;29709;52.396;16.796;2022-10-13T03:27:01;102461.80;;;6.89;73.39
44044;BME280;29709;52.396;16.796;2022-10-13T03:30:05;102461.55;;;6.79;73.58
44044;BME280;29709;52.396;16.796;2022-10-13T03:33:08;102457.47;;;6.72;75.17
44044;BME280;29709;52.396;16.796;2022-10-13T03:36:11;102457.14;;;6.77;74.93
44044;BME280;29709;52.396;16.796;2022-10-13T03:39:15;102457.07;;;6.78;74.99
44044;BME280;29709;52.396;16.796;2022-10-13T03:42:17;102451.39;;;6.81;74.66
44044;BME280;29709;52.396;16.796;2022-10-13T03:45:20;102450.72;;;6.78;74.17
44044;BME280;29709;52.396;16.796;2022-10-13T03:48:24;102450.91;;;6.75;75.32
44044;BME280;29709;52.396;16.796;2022-10-13T03:51:27;102459.01;;;6.76;75.12
44044;BME280;29709;52.396;16.796;2022-10-13T03:54:30;102464.17;;;6.81;74.22
44044;BME280;29709;52.396;16.796;2022-10-13T03:58:00;102456.38;;;6.75;73.88
44044;BME280;29709;52.396;16.796;2022-10-13T04:01:05;102457.57;;;6.71;73.97
44044;BME280;29709;52.396;16.796;2022-10-13T04:04:10;102454.95;;;6.69;73.79
44044;BME280;29709;52.396;16.796;2022-10-13T04:07:14;102456.70;;;6.70;74.08
44044;BME280;29709;52.396;16.796;2022-10-13T04:10:17;102464.58;;;6.75;73.53
44044;BME280;29709;52.396;16.796;2022-10-13T04:13:20;102464.58;;;6.75;73.52
44044;BME280;29709;52.396;16.796;2022-10-13T04:16:26;102453.38;;;6.65;73.90
44044;BME280;29709;52.396;16.796;2022-10-13T04:19:29;102452.47;;;6.52;73.36
44044;BME280;29709;52.396;16.796;2022-10-13T04:22:32;102442.34;;;6.40;74.20
44044;BME280;29709;52.396;16.796;2022-10-13T04:25:36;102442.63;;;6.35;73.97
44044;BME280;29709;52.396;16.796;2022-10-13T04:28:39;102448.40;;;6.30;75.02
44044;BME280;29709;52.396;16.796;2022-10-13T04:32:08;102452.33;;;6.26;74.42
44044;BME280;29709;52.396;16.796;2022-10-13T04:35:11;102447.05;;;6.23;75.22
44044;BME280;29709;52.396;16.796;2022-10-13T04:38:14;102445.02;;;6.27;74.73
44044;BME280;29709;52.396;16.796;2022-10-13T04:41:17;102447.64;;;6.28;75.17
44044;BME280;29709;52.396;16.796;2022-10-13T04:44:21;102432.12;;;6.29;75.68
44044;BME280;29709;52.396;16.796;2022-10-13T04:47:24;102434.64;;;6.32;74.62
44044;BME280;29709;52.396;16.796;2022-10-13T04:50:27;102433.89;;;6.30;75.39
44044;BME280;29709;52.396;16.796;2022-10-13T04:53:31;102433.40;;;6.23;76.48
44044;BME280;29709;52.396;16.796;2022-10-13T04:56:34;102429.03;;;6.21;75.13
44044;BME280;29709;52.396;16.796;2022-10-13T04:59:37;102427.38;;;6.18;76.00
44044;BME280;29709;52.396;16.796;2022-10-13T05:03:07;102428.36;;;6.17;75.91
44044;BME280;29709;52.396;16.796;2022-10-13T05:06:15;102422.12;;;6.15;76.48
44044;BME280;29709;52.396;16.796;2022-10-13T05:09:19;102417.02;;;6.23;76.46
44044;BME280;29709;52.396;16.796;2022-10-13T05:12:23;102417.62;;;6.28;76.52
44044;BME280;29709;52.396;16.796;2022-10-13T05:15:26;102419.74;;;6.23;76.67
44044;BME280;29709;52.396;16.796;2022-10-13T05:18:29;102411.98;;;6.17;77.32
44044;BME280;29709;52.396;16.796;2022-10-13T05:21:34;102411.00;;;6.18;76.44
44044;BME280;29709;52.396;16.796;2022-10-13T05:24:38;102404.17;;;6.11;76.37
44044;BME280;29709;52.396;16.796;2022-10-13T05:27:42;102416.28;;;6.07;76.97
44044;BME280;29709;52.396;16.796;2022-10-13T05:31:15;102407.40;;;6.03;77.14
44044;BME280;29709;52.396;16.796;2022-10-13T05:34:19;102408.38;;;6.02;77.39
44044;BME280;29709;52.396;16.796;2022-10-13T05:37:22;102402.15;;;6.00;77.74
44044;BME280;29709;52.396;16.796;2022-10-13T05:40:28;102407.33;;;6.05;77.79
44044;BME280;29709;52.396;16.796;2022-10-13T05:43:32;102404.38;;;6.08;77.45
44044;BME280;29709;52.396;16.796;2022-10-13T05:46:35;102398.62;;;6.13;77.34
44044;BME280;29709;52.396;16.796;2022-10-13T05:49:38;102387.41;;;6.17;77.39
44044;BME280;29709;52.396;16.796;2022-10-13T05:52:43;102388.95;;;6.21;77.59
44044;BME280;29709;52.396;16.796;2022-10-13T05:55:46;102395.28;;;6.22;77.62
44044;BME280;29709;52.396;16.796;2022-10-13T05:59:16;102401.02;;;6.31;77.63
44044;BME280;29709;52.396;16.796;2022-10-13T06:02:22;102403.23;;;6.39;77.59
44044;BME280;29709;52.396;16.796;2022-10-13T06:05:27;102391.96;;;6.58;77.47
44044;BME280;29709;52.396;16.796;2022-10-13T06:08:30;102397.72;;;6.80;77.31
44044;BME280;29709;52.396;16.796;2022-10-13T06:11:36;102388.46;;;7.08;76.47
44044;BME280;29709;52.396;16.796;2022-10-13T06:14:39;102393.32;;;7.30;76.37
44044;BME280;29709;52.396;16.796;2022-10-13T06:17:42;102383.14;;;7.45;75.74
44044;BME280;29709;52.396;16.796;2022-10-13T06:20:45;102379.21;;;7.62;75.87
44044;BME280;29709;52.396;16.796;2022-10-13T06:23:48;102379.95;;;7.76;75.56
44044;BME280;29709;52.396;16.796;2022-10-13T06:27:17;102377.18;;;7.89;75.30
44044;BME280;29709;52.396;16.796;2022-10-13T06:30:20;102365.00;;;8.06;75.20
44044;BME280;29709;52.396;16.796;2022-10-13T06:33:24;102375.34;;;8.26;74.71
44044;BME280;29709;52.396;16.796;2022-10-13T06:36:27;102371.88;;;8.48;74.12
44044;BME280;29709;52.396;16.796;2022-10-13T06:39:30;102365.47;;;8.60;73.53
44044;BME280;29709;52.396;16.796;2022-10-13T06:42:33;102366.92;;;8.77;72.98
44044;BME280;29709;52.396;16.796;2022-10-13T06:45:36;102371.08;;;8.94;73.28
44044;BME280;29709;52.396;16.796;2022-10-13T06:48:39;102363.66;;;9.07;72.87
44044;BME280;29709;52.396;16.796;2022-10-13T06:51:42;102365.55;;;9.18;72.52
44044;BME280;29709;52.396;16.796;2022-10-13T06:54:45;102369.94;;;9.32;71.99
44044;BME280;29709;52.396;16.796;2022-10-13T06:58:19;102360.99;;;9.52;72.00
44044;BME280;29709;52.396;16.796;2022-10-13T07:01:22;102369.63;;;9.70;71.66
44044;BME280;29709;52.396;16.796;2022-10-13T07:04:26;102369.84;;;9.89;70.65
44044;BME280;29709;52.396;16.796;2022-10-13T07:07:31;102365.33;;;9.99;70.83
44044;BME280;29709;52.396;16.796;2022-10-13T07:10:37;102371.47;;;10.03;70.15
44044;BME280;29709;52.396;16.796;2022-10-13T07:13:41;102361.20;;;10.16;70.36
44044;BME280;29709;52.396;16.796;2022-10-13T07:16:47;102367.31;;;10.31;69.65
44044;BME280;29709;52.396;16.796;2022-10-13T07:19:51;102367.55;;;10.39;69.18
44044;BME280;29709;52.396;16.796;2022-10-13T07:23:26;102368.79;;;10.46;69.46
44044;BME280;29709;52.396;16.796;2022-10-13T07:26:29;102368.15;;;10.54;69.22
44044;BME280;29709;52.396;16.796;2022-10-13T07:29:35;102357.98;;;10.65;68.79
44044;BME280;29709;52.396;16.796;2022-10-13T07:32:40;102355.91;;;10.79;68.71
44044;BME280;29709;52.396;16.796;2022-10-13T07:35:45;102354.12;;;10.89;68.46
44044;BME280;29709;52.396;16.796;2022-10-13T07:38:50;102355.07;;;10.99;68.08
44044;BME280;29709;52.396;16.796;2022-10-13T07:41:56;102359.36;;;11.13;68.14
44044;BME280;29709;52.396;16.796;2022-10-13T07:45:01;102338.48;;;11.31;67.84
44044;BME280;29709;52.396;16.796;2022-10-13T07:48:35;102337.00;;;11.48;67.62
44044;BME280;29709;52.396;16.796;2022-10-13T07:51:38;102336.48;;;11.64;67.25
44044;BME280;29709;52.396;16.796;2022-10-13T07:54:41;102342.90;;;11.74;66.88
44044;BME280;29709;52.396;16.796;2022-10-13T07:57:47;102339.94;;;11.87;66.22
44044;BME280;29709;52.396;16.796;2022-10-13T08:00:59;102337.51;;;11.93;65.94
44044;BME280;29709;52.396;16.796;2022-10-13T08:04:02;102331.20;;;12.12;66.16
44044;BME280;29709;52.396;16.796;2022-10-13T08:07:05;102327.85;;;12.18;65.32
44044;BME280;29709;52.396;16.796;2022-10-13T08:10:09;102323.84;;;12.32;65.81
44044;BME280;29709;52.396;16.796;2022-10-13T08:13:49;102323.56;;;12.45;64.68
44044;BME280;29709;52.396;16.796;2022-10-13T08:16:50;102323.86;;;12.51;63.97
44044;BME280;29709;52.396;16.796;2022-10-13T08:19:53;102322.84;;;12.62;63.15
44044;BME280;29709;52.396;16.796;2022-10-13T08:22:56;102324.87;;;12.79;63.76
44044;BME280;29709;52.396;16.796;2022-10-13T08:26:00;102324.13;;;12.96;63.89
44044;BME280;29709;52.396;16.796;2022-10-13T08:29:04;102324.70;;;13.10;62.71
44044;BME280;29709;52.396;16.796;2022-10-13T08:32:08;102327.02;;;13.14;61.82
44044;BME280;29709;52.396;16.796;2022-10-13T08:35:13;102325.41;;;13.12;62.01
44044;BME280;29709;52.396;16.796;2022-10-13T08:38:46;102314.36;;;13.31;62.21
44044;BME280;29709;52.396;16.796;2022-10-13T08:41:50;102305.59;;;13.55;61.98
44044;BME280;29709;52.396;16.796;2022-10-13T08:44:56;102298.64;;;13.78;61.75
44044;BME280;29709;52.396;16.796;2022-10-13T08:48:08;102309.88;;;13.95;61.09
44044;BME280;29709;52.396;16.796;2022-10-13T08:51:14;102297.75;;;14.05;59.83
44044;BME280;29709;52.396;16.796;2022-10-13T08:54:24;102296.53;;;14.18;59.92
44044;BME280;29709;52.396;16.796;2022-10-13T08:57:27;102297.40;;;14.36;59.36
44044;BME280;29709;52.396;16.796;2022-10-13T09:07:33;102283.87;;;14.60;58.76
44044;BME280;29709;52.396;16.796;2022-10-13T09:10:48;102288.51;;;14.78;57.33
44044;BME280;29709;52.396;16.796;2022-10-13T09:14:22;102283.91;;;14.86;57.81
44044;BME280;29709;52.396;16.796;2022-10-13T09:17:27;102276.34;;;15.14;57.12
44044;BME280;29709;52.396;16.796;2022-10-13T09:20:31;102271.56;;;15.24;57.08
44044;BME280;29709;52.396;16.796;2022-10-13T09:23:34;102271.48;;;15.42;57.16
44044;BME280;29709;52.396;16.796;2022-10-13T09:26:38;102269.46;;;15.52;56.22
44044;BME280;29709;52.396;16.796;2022-10-13T09:29:42;102275.95;;;15.61;55.87
44044;BME280;29709;52.396;16.796;2022-10-13T09:32:46;102275.83;;;15.71;56.12
44044;BME280;29709;52.396;16.796;2022-10-13T09:39:35;102275.77;;;15.97;55.24
44044;BME280;29709;52.396;16.796;2022-10-13T09:42:39;102261.07;;;16.12;54.57
44044;BME280;29709;52.396;16.796;2022-10-13T09:45:42;102260.27;;;16.28;54.45
44044;BME280;29709;52.396;16.796;2022-10-13T09:48:54;102245.16;;;16.31;54.31
44044;BME280;29709;52.396;16.796;2022-10-13T09:52:04;102251.77;;;16.30;54.11
44044;BME280;29709;52.396;16.796;2022-10-13T10:05:42;102245.40;;;16.94;54.54
44044;BME280;29709;52.396;16.796;2022-10-13T10:12:20;102234.77;;;17.22;53.20
44044;BME280;29709;52.396;16.796;2022-10-13T10:22:04;102218.88;;;17.47;52.37
44044;BME280;29709;52.396;16.796;2022-10-13T10:25:22;102221.62;;;17.64;51.58
44044;BME280;29709;52.396;16.796;2022-10-13T10:31:49;102208.02;;;17.69;50.07
44044;BME280;29709;52.396;16.796;2022-10-13T10:35:01;102202.83;;;17.66;50.76
44044;BME280;29709;52.396;16.796;2022-10-13T10:44:42;102199.67;;;17.69;49.61
44044;BME280;29709;52.396;16.796;2022-10-13T10:47:50;102196.00;;;17.84;50.22
44044;BME280;29709;52.396;16.796;2022-10-13T10:50:56;102189.45;;;18.00;50.50
44044;BME280;29709;52.396;16.796;2022-10-13T11:01:04;102174.57;;;18.16;49.84
44044;BME280;29709;52.396;16.796;2022-10-13T11:04:27;102164.26;;;18.25;48.68
44044;BME280;29709;52.396;16.796;2022-10-13T11:10:40;102168.09;;;18.24;48.61
44044;BME280;29709;52.396;16.796;2022-10-13T11:14:22;102164.87;;;18.35;49.26
44044;BME280;29709;52.396;16.796;2022-10-13T11:17:28;102144.23;;;18.44;49.72
44044;BME280;29709;52.396;16.796;2022-10-13T11:23:49;102135.82;;;18.52;49.38
44044;BME280;29709;52.396;16.796;2022-10-13T11:26:52;102141.70;;;18.57;48.65
44044;BME280;29709;52.396;16.796;2022-10-13T11:33:54;102122.30;;;18.64;48.46
44044;BME280;29709;52.396;16.796;2022-10-13T11:36:57;102116.70;;;18.72;48.92
44044;BME280;29709;52.396;16.796;2022-10-13T11:56:19;102104.21;;;18.83;48.38
44044;BME280;29709;52.396;16.796;2022-10-13T11:59:29;102100.29;;;18.92;47.89
44044;BME280;29709;52.396;16.796;2022-10-13T12:02:34;102097.60;;;18.98;48.01
44044;BME280;29709;52.396;16.796;2022-10-13T12:09:20;102088.17;;;19.14;48.21
44044;BME280;29709;52.396;16.796;2022-10-13T12:12:24;102086.34;;;19.21;48.19
44044;BME280;29709;52.396;16.796;2022-10-13T12:15:36;102082.49;;;19.22;47.95
44044;BME280;29709;52.396;16.796;2022-10-13T12:18:41;102086.55;;;19.20;48.32
44044;BME280;29709;52.396;16.796;2022-10-13T12:21:52;102083.75;;;19.20;48.05
44044;BME280;29709;52.396;16.796;2022-10-13T12:24:58;102076.63;;;19.17;48.16
44044;BME280;29709;52.396;16.796;2022-10-13T12:28:01;102080.47;;;19.31;48.32
44044;BME280;29709;52.396;16.796;2022-10-13T12:31:39;102085.34;;;19.44;47.78
44044;BME280;29709;52.396;16.796;2022-10-13T12:34:42;102074.29;;;19.36;47.48
44044;BME280;29709;52.396;16.796;2022-10-13T12:37:46;102066.43;;;19.24;47.88
44044;BME280;29709;52.396;16.796;2022-10-13T12:40:51;102066.94;;;19.13;47.60
44044;BME280;29709;52.396;16.796;2022-10-13T12:43:56;102063.68;;;19.10;48.52
44044;BME280;29709;52.396;16.796;2022-10-13T12:47:01;102068.75;;;19.06;48.50
44044;BME280;29709;52.396;16.796;2022-10-13T12:53:25;102062.82;;;19.09;48.55
44044;BME280;29709;52.396;16.796;2022-10-13T12:56:32;102064.74;;;19.09;48.81
44044;BME280;29709;52.396;16.796;2022-10-13T13:03:20;102054.16;;;19.04;48.46
44044;BME280;29709;52.396;16.796;2022-10-13T13:06:35;102058.60;;;18.98;48.86
44044;BME280;29709;52.396;16.796;2022-10-13T13:09:38;102051.00;;;18.92;48.64
44044;BME280;29709;52.396;16.796;2022-10-13T13:12:43;102044.87;;;18.97;48.58
44044;BME280;29709;52.396;16.796;2022-10-13T13:16:18;102045.83;;;18.89;48.97
44044;BME280;29709;52.396;16.796;2022-10-13T13:19:22;102046.09;;;18.94;49.16
44044;BME280;29709;52.396;16.796;2022-10-13T13:22:25;102040.32;;;18.96;49.07
44044;BME280;29709;52.396;16.796;2022-10-13T13:25:28;102028.31;;;18.95;49.05
44044;BME280;29709;52.396;16.796;2022-10-13T13:28:32;102020.46;;;18.99;49.09
44044;BME280;29709;52.396;16.796;2022-10-13T13:31:35;102021.41;;;18.91;48.90
44044;BME280;29709;52.396;16.796;2022-10-13T13:34:38;102026.60;;;18.94;49.15
44044;BME280;29709;52.396;16.796;2022-10-13T13:37:46;102027.95;;;18.98;49.24
44044;BME280;29709;52.396;16.796;2022-10-13T13:41:19;102032.27;;;19.01;48.91
44044;BME280;29709;52.396;16.796;2022-10-13T13:44:31;102033.40;;;19.07;49.42
44044;BME280;29709;52.396;16.796;2022-10-13T13:47:34;102030.90;;;19.12;48.68
44044;BME280;29709;52.396;16.796;2022-10-13T13:50:37;102028.31;;;19.10;48.63
44044;BME280;29709;52.396;16.796;2022-10-13T13:53:40;102028.77;;;19.14;48.59
44044;BME280;29709;52.396;16.796;2022-10-13T13:56:43;102024.56;;;19.18;48.73
44044;BME280;29709;52.396;16.796;2022-10-13T13:59:49;102009.57;;;19.19;48.16
44044;BME280;29709;52.396;16.796;2022-10-13T14:02:52;102010.63;;;19.18;48.75
44044;BME280;29709;52.396;16.796;2022-10-13T14:05:55;102008.10;;;19.23;48.59
44044;BME280;29709;52.396;16.796;2022-10-13T14:09:24;102006.88;;;19.11;48.96
44044;BME280;29709;52.396;16.796;2022-10-13T14:12:29;102003.70;;;19.14;49.23
44044;BME280;29709;52.396;16.796;2022-10-13T14:15:32;102005.91;;;19.18;48.87
44044;BME280;29709;52.396;16.796;2022-10-13T14:18:36;101997.73;;;19.17;48.65
44044;BME280;29709;52.396;16.796;2022-10-13T14:21:39;101994.79;;;19.03;48.94
44044;BME280;29709;52.396;16.796;2022-10-13T14:24:43;102004.51;;;18.93;48.73
44044;BME280;29709;52.396;16.796;2022-10-13T14:27:46;102003.18;;;18.89;49.28
44044;BME280;29709;52.396;16.796;2022-10-13T14:30:49;101996.95;;;18.87;49.89
44044;BME280;29709;52.396;16.796;2022-10-13T14:33:52;102000.59;;;18.87;49.67
44044;BME280;29709;52.396;16.796;2022-10-13T14:36:55;101991.73;;;18.84;49.45
44044;BME280;29709;52.396;16.796;2022-10-13T14:40:24;101987.91;;;18.70;49.91
44044;BME280;29709;52.396;16.796;2022-10-13T14:43:27;101990.04;;;18.68;50.10
44044;BME280;29709;52.396;16.796;2022-10-13T14:46:30;101992.48;;;18.63;49.81
44044;BME280;29709;52.396;16.796;2022-10-13T14:49:33;101985.59;;;18.59;50.55
44044;BME280;29709;52.396;16.796;2022-10-13T14:52:36;101987.71;;;18.57;50.68
44044;BME280;29709;52.396;16.796;2022-10-13T14:55:46;101986.45;;;18.59;50.59
44044;BME280;29709;52.396;16.796;2022-10-13T14:59:00;101985.39;;;18.60;50.52
44044;BME280;29709;52.396;16.796;2022-10-13T15:01:59;101987.51;;;18.58;50.48
44044;BME280;29709;52.396;16.796;2022-10-13T15:05:29;101980.30;;;18.49;51.03
44044;BME280;29709;52.396;16.796;2022-10-13T15:08:32;101984.70;;;18.43;51.39
44044;BME280;29709;52.396;16.796;2022-10-13T15:11:35;101984.03;;;18.41;51.32
44044;BME280;29709;52.396;16.796;2022-10-13T15:14:39;101979.61;;;18.32;51.39
44044;BME280;29709;52.396;16.796;2022-10-13T15:17:42;101977.61;;;18.26;51.88
44044;BME280;29709;52.396;16.796;2022-10-13T15:20:46;101985.37;;;18.16;51.64
44044;BME280;29709;52.396;16.796;2022-10-13T15:23:50;101986.49;;;18.07;51.85
44044;BME280;29709;52.396;16.796;2022-10-13T15:26:53;101985.52;;;18.00;52.68
44044;BME280;29709;52.396;16.796;2022-10-13T15:29:56;101987.34;;;17.93;52.18
44044;BME280;29709;52.396;16.796;2022-10-13T15:32:59;101981.52;;;17.79;52.78
44044;BME280;29709;52.396;16.796;2022-10-13T15:36:30;101985.96;;;17.66;53.27
44044;BME280;29709;52.396;16.796;2022-10-13T15:39:34;101968.86;;;17.54;53.98
44044;BME280;29709;52.396;16.796;2022-10-13T15:42:37;101966.52;;;17.43;53.10
44044;BME280;29709;52.396;16.796;2022-10-13T15:45:41;101969.02;;;17.29;53.37
44044;BME280;29709;52.396;16.796;2022-10-13T15:48:44;101972.06;;;17.20;54.72
44044;BME280;29709;52.396;16.796;2022-10-13T15:51:47;101963.97;;;17.10;54.45
44044;BME280;29709;52.396;16.796;2022-10-13T15:54:50;101966.97;;;17.00;55.26
44044;BME280;29709;52.396;16.796;2022-10-13T15:57:53;101966.82;;;16.94;55.00
44044;BME280;29709;52.396;16.796;2022-10-13T16:00:56;101965.66;;;16.88;55.32
44044;BME280;29709;52.396;16.796;2022-10-13T16:04:00;101970.00;;;16.83;55.86
44044;BME280;29709;52.396;16.796;2022-10-13T16:07:31;101963.80;;;16.72;56.31
44044;BME280;29709;52.396;16.796;2022-10-13T16:10:34;101968.12;;;16.67;55.42
44044;BME280;29709;52.396;16.796;2022-10-13T16:13:38;101978.05;;;16.61;55.61
44044;BME280;29709;52.396;16.796;2022-10-13T16:16:42;101974.80;;;16.50;56.59
44044;BME280;29709;52.396;16.796;2022-10-13T16:19:45;101967.19;;;16.35;56.91
44044;BME280;29709;52.396;16.796;2022-10-13T16:22:49;101970.88;;;16.28;57.34
44044;BME280;29709;52.396;16.796;2022-10-13T16:25:52;101963.09;;;16.15;57.97
44044;BME280;29709;52.396;16.796;2022-10-13T16:28:55;101968.67;;;16.07;56.62
44044;BME280;29709;52.396;16.796;2022-10-13T16:32:00;101966.41;;;15.94;57.95
44044;BME280;29709;52.396;16.796;2022-10-13T16:35:03;101960.90;;;15.86;57.84
44044;BME280;29709;52.396;16.796;2022-10-13T16:38:32;101958.13;;;15.70;59.08
44044;BME280;29709;52.396;16.796;2022-10-13T16:41:36;101952.89;;;15.58;59.36
44044;BME280;29709;52.396;16.796;2022-10-13T16:44:40;101955.34;;;15.53;59.22
44044;BME280;29709;52.396;16.796;2022-10-13T16:47:43;101948.74;;;15.46;59.49
44044;BME280;29709;52.396;16.796;2022-10-13T16:50:52;101948.38;;;15.41;60.50
44044;BME280;29709;52.396;16.796;2022-10-13T16:53:58;101942.15;;;15.39;59.86
44044;BME280;29709;52.396;16.796;2022-10-13T16:57:01;101947.18;;;15.36;59.76
44044;BME280;29709;52.396;16.796;2022-10-13T17:00:06;101944.05;;;15.30;60.94
44044;BME280;29709;52.396;16.796;2022-10-13T17:03:37;101954.96;;;15.24;60.51
44044;BME280;29709;52.396;16.796;2022-10-13T17:06:41;101942.15;;;15.23;60.22
44044;BME280;29709;52.396;16.796;2022-10-13T17:09:45;101940.75;;;15.19;60.51
44044;BME280;29709;52.396;16.796;2022-10-13T17:12:49;101940.89;;;15.09;61.63
44044;BME280;29709;52.396;16.796;2022-10-13T17:15:54;101944.39;;;15.11;60.82
44044;BME280;29709;52.396;16.796;2022-10-13T17:18:58;101940.21;;;15.07;61.79
44044;BME280;29709;52.396;16.796;2022-10-13T17:22:02;101944.88;;;15.07;62.06
44044;BME280;29709;52.396;16.796;2022-10-13T17:25:05;101940.38;;;15.06;61.50
44044;BME280;29709;52.396;16.796;2022-10-13T17:28:09;101934.64;;;14.99;61.67
44044;BME280;29709;52.396;16.796;2022-10-13T17:31:39;101934.28;;;14.86;61.55
44044;BME280;29709;52.396;16.796;2022-10-13T17:34:42;101929.41;;;14.80;62.03
44044;BME280;29709;52.396;16.796;2022-10-13T17:37:48;101933.38;;;14.77;61.78
44044;BME280;29709;52.396;16.796;2022-10-13T17:40:51;101930.45;;;14.70;62.89
44044;BME280;29709;52.396;16.796;2022-10-13T17:43:54;101930.76;;;14.67;62.98
44044;BME280;29709;52.396;16.796;2022-10-13T17:46:57;101935.38;;;14.59;63.01
44044;BME280;29709;52.396;16.796;2022-10-13T17:50:00;101933.13;;;14.54;62.71
44044;BME280;29709;52.396;16.796;2022-10-13T17:53:03;101922.02;;;14.46;63.00
44044;BME280;29709;52.396;16.796;2022-10-13T17:56:12;101912.96;;;14.36;62.53
44044;BME280;29709;52.396;16.796;2022-10-13T17:59:42;101939.39;;;14.30;63.51
44044;BME280;29709;52.396;16.796;2022-10-13T18:02:45;101934.16;;;14.27;64.01
44044;BME280;29709;52.396;16.796;2022-10-13T18:05:50;101946.45;;;14.25;64.42
44044;BME280;29709;52.396;16.796;2022-10-13T18:08:53;101947.47;;;14.24;64.62
44044;BME280;29709;52.396;16.796;2022-10-13T18:11:56;101940.21;;;14.23;63.14
44044;BME280;29709;52.396;16.796;2022-10-13T18:15:00;101939.97;;;14.08;64.17